Time;durP1;ratioP1;P1;durP2;ratioP2;P2;SDS_P1;SDS_P2;PMS_P1;PMS_P2;Temp;Humidity;BMP_temperature;BMP_pressure;BME280_temperature;BME280_humidity;BME280_pressure;Samples;Min_cycle;Max_cycle;Signal;HPM_P1;HPM_P2
2022/03/06 00:02:03;;;;;;;4.87;4.47;;;;;;;17.67;40.94;97609.00;5032224;28;20662;-87
2022/03/06 00:04:30;;;;;;;5.10;4.60;;;;;;;18.01;41.34;97664.78;5031811;28;20193;-86
2022/03/06 00:06:57;;;;;;;4.70;4.30;;;;;;;17.96;40.73;97649.31;5015722;28;20240;-86
2022/03/06 00:09:23;;;;;;;5.03;4.63;;;;;;;18.09;40.90;97676.19;5015377;28;20765;-86
2022/03/06 00:11:51;;;;;;;5.57;5.07;;;;;;;18.06;40.92;97661.63;5014989;28;20316;-86
2022/03/06 00:14:17;;;;;;;5.33;4.83;;;;;;;18.02;40.86;97651.25;5031370;28;20670;-87
2022/03/06 00:16:44;;;;;;;5.53;5.03;;;;;;;18.08;40.98;97664.25;5015130;28;20229;-87
2022/03/06 00:19:10;;;;;;;5.20;4.73;;;;;;;17.90;41.25;97631.25;5015425;28;20319;-87
2022/03/06 00:21:39;;;;;;;4.70;4.30;;;;;;;18.02;40.69;97653.81;5015584;28;20204;-87
2022/03/06 00:24:06;;;;;;;5.83;4.83;;;;;;;17.95;40.94;97639.94;5031705;28;20291;-87
2022/03/06 00:48:08;;;;;;;5.40;4.90;;;;;;;17.66;41.65;97617.44;5026068;22;20260;-86
2022/03/06 00:50:36;;;;;;;5.57;5.07;;;;;;;18.01;41.82;97672.41;4972280;28;20217;-86
2022/03/06 00:53:03;;;;;;;5.13;4.67;;;;;;;17.98;41.24;97669.72;4988213;28;20329;-87
2022/03/06 00:55:30;;;;;;;5.23;4.73;;;;;;;18.01;41.59;97673.28;4972460;28;20556;-87
2022/03/06 00:57:57;;;;;;;5.77;5.27;;;;;;;17.88;41.53;97658.25;4971896;28;20301;-87
2022/03/06 01:00:24;;;;;;;4.87;4.40;;;;;;;17.94;41.65;97663.63;4988381;28;20362;-87
2022/03/06 01:02:51;;;;;;;5.33;4.83;;;;;;;17.89;41.24;97654.91;4972023;28;20578;-88
2022/03/06 01:05:20;;;;;;;5.30;4.80;;;;;;;18.12;41.37;97689.88;4983241;28;20229;-87
2022/03/06 01:07:47;;;;;;;5.57;5.07;;;;;;;17.90;41.33;97658.34;5027027;28;20230;-87
2022/03/06 01:10:13;;;;;;;5.20;4.70;;;;;;;17.94;41.36;97671.25;4994525;28;20252;-87
2022/03/06 01:12:40;;;;;;;5.30;4.80;;;;;;;17.55;41.57;97600.81;4994112;28;20253;-87
2022/03/06 01:15:07;;;;;;;5.53;5.03;;;;;;;18.01;41.75;97677.50;5011061;28;20213;-87
2022/03/06 01:17:33;;;;;;;5.50;5.00;;;;;;;17.92;41.61;97660.13;5011479;28;20699;-87
2022/03/06 01:20:00;;;;;;;5.80;5.20;;;;;;;18.00;41.70;97680.84;4994138;28;20206;-87
2022/03/06 01:22:27;;;;;;;5.83;5.23;;;;;;;17.73;41.16;97631.25;4994656;28;20223;-87
2022/03/06 01:24:53;;;;;;;5.23;4.73;;;;;;;18.01;41.53;97685.13;4994048;28;20727;-87
2022/03/06 01:27:20;;;;;;;5.53;5.03;;;;;;;17.94;41.44;97666.16;4994825;28;20225;-86
2022/03/06 01:29:46;;;;;;;5.63;5.10;;;;;;;17.70;41.33;97632.00;4994242;28;21021;-88
2022/03/06 01:32:13;;;;;;;6.03;5.37;;;;;;;17.94;41.24;97667.81;5026604;28;20251;-87
2022/03/06 01:34:39;;;;;;;5.80;5.20;;;;;;;17.86;41.93;97662.41;5010510;28;20288;-87
2022/03/06 01:37:06;;;;;;;5.53;4.87;;;;;;;17.65;41.22;97622.44;4994129;28;20307;-87
2022/03/06 01:39:33;;;;;;;5.60;5.10;;;;;;;17.92;40.97;97669.44;5009753;28;20280;-87
2022/03/06 01:41:59;;;;;;;6.70;5.37;;;;;;;17.82;41.08;97654.56;5010617;28;20300;-87
2022/03/06 01:44:26;;;;;;;5.83;5.27;;;;;;;17.81;41.36;97650.28;5010059;28;20251;-87
2022/03/06 01:49:34;;;;;;;5.90;5.33;;;;;;;16.37;41.12;97403.94;5067271;22;20286;-86
2022/03/06 01:52:00;;;;;;;5.57;5.07;;;;;;;18.05;41.33;97692.97;5029187;28;20867;-85
2022/03/06 01:54:27;;;;;;;5.60;5.10;;;;;;;17.52;41.25;97600.66;5046446;28;20678;-85
2022/03/06 01:56:54;;;;;;;5.97;5.37;;;;;;;18.04;41.43;97692.91;5029984;28;20641;-84
2022/03/06 01:59:22;;;;;;;5.50;5.00;;;;;;;18.02;41.38;97687.75;5047500;28;20601;-86
2022/03/06 02:01:49;;;;;;;5.50;5.00;;;;;;;16.83;41.42;97477.16;5040686;28;20229;-83
2022/03/06 02:04:16;;;;;;;5.70;5.10;;;;;;;18.03;41.46;97694.56;5068097;28;20232;-85
2022/03/06 02:06:43;;;;;;;5.40;4.90;;;;;;;17.33;41.32;97625.13;5066323;28;20291;-85
2022/03/06 02:09:09;;;;;;;5.77;5.23;;;;;;;17.70;41.66;97643.84;5066188;28;20263;-85
2022/03/06 02:11:36;;;;;;;5.60;5.10;;;;;;;17.93;41.34;97673.72;5049242;28;20232;-84
2022/03/06 02:14:03;;;;;;;5.53;5.03;;;;;;;17.54;41.05;97600.75;5065381;28;20200;-78
2022/03/06 02:16:32;;;;;;;5.23;4.73;;;;;;;17.71;41.20;97628.66;5065364;28;20261;-78
2022/03/06 02:18:59;;;;;;;5.27;4.77;;;;;;;18.07;41.61;97685.41;5065985;28;20453;-77
2022/03/06 02:21:26;;;;;;;5.50;5.00;;;;;;;18.09;41.25;97694.00;5066632;28;20248;-78
2022/03/06 02:23:54;;;;;;;5.57;5.07;;;;;;;17.47;41.27;97581.78;5067322;28;20243;-78
2022/03/06 02:26:20;;;;;;;5.13;4.63;;;;;;;17.74;41.34;97628.78;5048936;28;20754;-78
2022/03/06 02:28:47;;;;;;;5.77;5.20;;;;;;;17.81;41.25;97640.13;5049069;28;20318;-78
2022/03/06 02:31:13;;;;;;;5.43;4.93;;;;;;;18.12;41.17;97709.38;5031798;28;20689;-76
2022/03/06 02:33:40;;;;;;;5.20;4.63;;;;;;;15.85;41.78;97297.47;5065840;28;20216;-77
2022/03/06 02:36:07;;;;;;;5.30;4.80;;;;;;;17.77;41.46;97633.16;5065819;28;20295;-78
2022/03/06 02:38:34;;;;;;;5.90;5.30;;;;;;;17.85;41.60;97649.63;5065391;28;20259;-78
2022/03/06 02:41:00;;;;;;;5.90;5.37;;;;;;;18.15;40.87;97704.44;5049023;28;20247;-78
2022/03/06 02:43:27;;;;;;;5.70;5.20;;;;;;;17.82;41.42;97644.41;5065513;28;20232;-78
2022/03/06 02:45:53;;;;;;;5.67;5.17;;;;;;;17.20;41.02;97537.31;5065562;28;20247;-78
2022/03/06 02:48:21;;;;;;;5.67;5.10;;;;;;;17.17;40.89;97531.25;5032163;28;20274;-78
2022/03/06 02:50:47;;;;;;;5.67;5.17;;;;;;;17.83;41.08;97646.16;5052809;28;20273;-78
2022/03/06 02:53:14;;;;;;;5.60;5.10;;;;;;;18.16;41.41;97704.50;5035927;28;20319;-78
2022/03/06 02:55:42;;;;;;;5.53;5.03;;;;;;;18.16;41.09;97712.13;5071345;28;20303;-78
2022/03/06 02:58:09;;;;;;;5.30;4.80;;;;;;;17.30;41.66;97556.41;5070418;28;20252;-77
2022/03/06 03:00:35;;;;;;;5.63;5.07;;;;;;;18.15;40.94;97712.91;5052609;28;20295;-78
2022/03/06 03:03:02;;;;;;;5.47;4.97;;;;;;;17.78;41.03;97645.94;5069230;28;20315;-78
2022/03/06 03:05:29;;;;;;;5.60;5.10;;;;;;;17.48;41.37;97592.84;5046689;28;20592;-78
2022/03/06 03:07:56;;;;;;;6.13;5.53;;;;;;;17.62;41.20;97628.22;5063860;28;20221;-78
2022/03/06 03:10:24;;;;;;;5.67;5.17;;;;;;;17.22;41.09;97550.97;5037153;28;20730;-77
2022/03/06 03:12:50;;;;;;;5.57;5.07;;;;;;;16.61;41.23;97443.97;5012066;28;20283;-78
2022/03/06 03:15:17;;;;;;;5.83;5.30;;;;;;;17.81;40.97;97651.16;4996538;28;20683;-77
2022/03/06 03:17:44;;;;;;;6.47;5.87;;;;;;;17.25;41.36;97557.84;5012876;28;20718;-77
2022/03/06 03:20:12;;;;;;;5.70;5.20;;;;;;;18.14;41.26;97717.94;5028682;28;20212;-78
2022/03/06 03:22:39;;;;;;;5.73;5.23;;;;;;;17.18;41.18;97543.13;5030209;28;20201;-78
2022/03/06 03:25:06;;;;;;;5.60;5.10;;;;;;;18.14;41.08;97712.84;5012598;28;20206;-78
2022/03/06 03:27:33;;;;;;;5.30;4.80;;;;;;;18.13;41.35;97711.13;5029111;28;20275;-78
2022/03/06 03:29:59;;;;;;;6.33;5.73;;;;;;;17.25;41.31;97557.84;5029254;28;20509;-76
2022/03/06 03:32:26;;;;;;;5.33;4.83;;;;;;;17.53;40.99;97607.47;5031799;28;20225;-78
2022/03/06 03:34:53;;;;;;;6.20;5.60;;;;;;;17.46;41.52;97589.34;5015917;28;20202;-78
2022/03/06 03:37:19;;;;;;;5.80;5.30;;;;;;;17.16;41.31;97548.13;5015756;28;20284;-78
2022/03/06 03:39:46;;;;;;;6.07;5.47;;;;;;;16.98;41.55;97519.34;5032019;28;20208;-76
2022/03/06 03:42:13;;;;;;;5.63;5.13;;;;;;;17.92;41.43;97690.66;4999266;28;20292;-78
2022/03/06 03:44:39;;;;;;;5.63;5.13;;;;;;;17.17;41.21;97556.63;5015585;28;20240;-78
2022/03/06 03:47:06;;;;;;;5.57;5.07;;;;;;;16.45;41.13;97442.38;4999122;28;20230;-86
2022/03/06 03:49:34;;;;;;;5.60;5.10;;;;;;;16.95;41.13;97524.28;5015843;28;20220;-87
2022/03/06 03:52:00;;;;;;;5.57;5.07;;;;;;;17.07;41.86;97541.75;5031396;28;20217;-86
2022/03/06 03:54:27;;;;;;;5.87;5.33;;;;;;;18.10;41.11;97727.13;5031945;28;20248;-85
2022/03/06 03:56:53;;;;;;;5.70;5.20;;;;;;;18.09;41.38;97732.13;5032822;28;20754;-86
2022/03/06 03:59:20;;;;;;;6.13;5.53;;;;;;;16.15;41.42;97396.09;5032091;28;20280;-86
2022/03/06 04:01:47;;;;;;;5.73;5.20;;;;;;;17.69;41.36;97665.84;4997659;28;20252;-84
2022/03/06 04:04:14;;;;;;;5.43;4.93;;;;;;;17.76;41.49;97677.16;5023792;28;20498;-85
2022/03/06 04:06:40;;;;;;;5.60;5.10;;;;;;;17.74;41.10;97672.00;5049360;28;20276;-87
2022/03/06 04:09:07;;;;;;;5.63;5.13;;;;;;;16.23;41.66;97411.69;5043174;28;20299;-86
2022/03/06 04:11:33;;;;;;;5.60;5.10;;;;;;;17.49;40.94;97633.56;5046622;28;20236;-87
2022/03/06 04:14:00;;;;;;;6.23;5.63;;;;;;;16.04;41.13;97381.16;5014479;28;20253;-84
2022/03/06 04:16:26;;;;;;;6.17;5.43;;;;;;;18.10;41.36;97736.41;5030456;28;20289;-76
2022/03/06 04:18:53;;;;;;;6.17;5.57;;;;;;;17.78;41.53;97678.09;5034556;28;20624;-78
2022/03/06 04:21:20;;;;;;;6.90;5.73;;;;;;;18.11;41.27;97733.94;5034469;28;20233;-78
2022/03/06 04:23:47;;;;;;;5.83;5.33;;;;;;;18.12;41.49;97733.13;5050913;28;20279;-78
2022/03/06 04:26:13;;;;;;;6.40;5.80;;;;;;;17.74;41.52;97666.91;5050924;28;20231;-78
2022/03/06 04:28:40;;;;;;;5.63;5.10;;;;;;;17.27;40.93;97590.16;5017723;28;20256;-77
2022/03/06 04:31:06;;;;;;;6.20;5.60;;;;;;;17.51;41.31;97618.38;5034044;28;20579;-78
2022/03/06 04:33:33;;;;;;;6.00;5.40;;;;;;;17.09;41.21;97547.78;5017808;28;20232;-78
2022/03/06 04:36:00;;;;;;;6.33;5.70;;;;;;;17.64;41.06;97654.59;5034357;28;20672;-79
2022/03/06 04:38:26;;;;;;;6.50;5.83;;;;;;;17.74;40.91;97669.47;5034001;28;20653;-77
2022/03/06 04:40:53;;;;;;;6.93;6.23;;;;;;;17.56;41.01;97638.13;5050370;28;20573;-78
2022/03/06 04:43:19;;;;;;;6.00;5.40;;;;;;;18.18;41.17;97742.72;5034416;28;20240;-78
2022/03/06 04:45:46;;;;;;;5.90;5.40;;;;;;;18.18;41.25;97745.28;5051919;28;20671;-78
2022/03/06 04:48:13;;;;;;;6.37;5.83;;;;;;;18.18;40.87;97737.63;5033993;28;20264;-78
2022/03/06 04:50:39;;;;;;;6.00;5.40;;;;;;;18.18;40.74;97741.03;5050015;28;20765;-78
2022/03/06 04:53:06;;;;;;;6.10;5.50;;;;;;;18.19;40.99;97739.38;5051694;28;20267;-78
2022/03/06 04:55:32;;;;;;;6.07;5.47;;;;;;;17.89;40.90;97685.41;5051824;28;20602;-78
2022/03/06 04:57:59;;;;;;;5.70;5.20;;;;;;;17.07;41.27;97541.75;5050655;28;20248;-77
2022/03/06 05:00:25;;;;;;;5.73;5.23;;;;;;;18.18;41.27;97748.66;5017319;28;20232;-78
2022/03/06 05:02:52;;;;;;;6.20;5.63;;;;;;;17.82;41.29;97690.16;5050558;28;20292;-77
2022/03/06 05:05:19;;;;;;;6.10;5.50;;;;;;;17.87;41.37;97699.75;5050170;28;20228;-78
2022/03/06 05:07:45;;;;;;;5.93;5.33;;;;;;;17.28;41.49;97591.88;5033924;28;20266;-77
2022/03/06 05:10:12;;;;;;;6.33;5.70;;;;;;;17.41;41.00;97622.13;5033416;28;20292;-78
2022/03/06 05:12:40;;;;;;;6.33;5.70;;;;;;;17.45;41.38;97629.16;5033000;28;20224;-78
2022/03/06 05:15:08;;;;;;;6.10;5.60;;;;;;;16.04;41.14;97388.75;5033752;28;20204;-77
2022/03/06 05:17:36;;;;;;;5.93;5.43;;;;;;;16.61;41.03;97494.72;5034209;28;20228;-78
2022/03/06 05:20:03;;;;;;;6.00;5.40;;;;;;;18.10;41.50;97764.38;5033704;28;20239;-78
2022/03/06 05:22:30;;;;;;;6.00;5.50;;;;;;;18.09;41.29;97757.56;5017053;28;20250;-77
2022/03/06 05:24:58;;;;;;;6.00;5.40;;;;;;;17.89;41.70;97733.72;5051321;28;20247;-78
2022/03/06 05:27:25;;;;;;;6.17;5.57;;;;;;;16.89;41.34;97566.25;5049601;28;20229;-78
2022/03/06 05:29:52;;;;;;;5.83;5.33;;;;;;;17.68;41.75;97703.91;5033685;28;20235;-77
2022/03/06 05:32:18;;;;;;;5.93;5.37;;;;;;;17.57;41.66;97687.28;5016499;28;20204;-78
2022/03/06 05:34:45;;;;;;;5.80;5.30;;;;;;;17.70;41.67;97709.91;5050240;28;20236;-78
2022/03/06 05:37:11;;;;;;;6.47;5.87;;;;;;;17.06;41.40;97598.41;5033322;28;20856;-78
2022/03/06 05:39:38;;;;;;;6.27;5.67;;;;;;;18.02;41.59;97774.19;5033464;28;20257;-77
2022/03/06 05:42:05;;;;;;;6.67;5.97;;;;;;;17.66;41.12;97710.59;5050508;28;20749;-78
2022/03/06 05:44:31;;;;;;;6.40;5.70;;;;;;;18.02;41.00;97775.84;5049957;28;20236;-78
2022/03/06 05:46:58;;;;;;;7.00;5.83;;;;;;;18.01;40.96;97774.13;5049289;28;20204;-78
2022/03/06 05:49:24;;;;;;;6.23;5.70;;;;;;;17.45;41.09;97682.50;5048957;28;20259;-78
2022/03/06 05:51:51;;;;;;;6.30;5.70;;;;;;;16.76;41.09;97559.75;5032217;28;20577;-77
2022/03/06 05:54:18;;;;;;;6.33;5.73;;;;;;;16.57;41.33;97523.25;5032490;28;20251;-77
2022/03/06 05:56:44;;;;;;;6.80;6.10;;;;;;;18.00;41.03;97778.34;5032321;28;20232;-78
2022/03/06 05:59:11;;;;;;;6.60;6.00;;;;;;;18.00;41.21;97777.47;5048585;28;20320;-77
2022/03/06 06:01:38;;;;;;;6.83;5.83;;;;;;;17.99;41.02;97779.16;5031954;28;20686;-78
2022/03/06 06:04:04;;;;;;;6.07;5.57;;;;;;;18.00;41.21;97785.09;5052194;28;20216;-77
2022/03/06 06:06:31;;;;;;;6.10;5.50;;;;;;;17.99;40.99;97776.59;5068953;28;20295;-78
2022/03/06 06:08:58;;;;;;;6.07;5.57;;;;;;;17.24;41.08;97648.41;5068419;28;20319;-78
2022/03/06 06:11:25;;;;;;;6.60;6.00;;;;;;;17.64;41.51;97718.13;5051856;28;20709;-78
2022/03/06 06:13:51;;;;;;;5.90;5.40;;;;;;;18.00;41.09;97780.03;5051349;28;20309;-78
2022/03/06 06:16:18;;;;;;;6.10;5.50;;;;;;;17.38;41.04;97679.56;5069680;28;20243;-78
2022/03/06 06:18:44;;;;;;;5.93;5.33;;;;;;;17.64;41.52;97725.75;5051888;28;20251;-78
2022/03/06 06:21:11;;;;;;;6.53;5.93;;;;;;;17.13;41.20;97636.88;5052168;28;20200;-78
2022/03/06 06:23:39;;;;;;;6.67;6.07;;;;;;;18.01;41.39;97786.84;5052462;28;20295;-78
2022/03/06 06:26:05;;;;;;;5.87;5.37;;;;;;;16.65;41.13;97552.41;5072351;28;20366;-77
2022/03/06 06:28:32;;;;;;;5.87;5.30;;;;;;;18.00;41.45;97791.03;5055518;28;20302;-77
2022/03/06 06:30:58;;;;;;;6.37;5.77;;;;;;;17.36;41.54;97679.47;5071661;28;20620;-78
2022/03/06 06:33:25;;;;;;;6.13;5.53;;;;;;;17.71;41.67;97745.56;5072087;28;20305;-79
2022/03/06 06:35:51;;;;;;;6.07;5.47;;;;;;;18.01;41.46;97792.81;5071824;28;20279;-78
2022/03/06 06:38:20;;;;;;;5.97;5.40;;;;;;;17.63;41.22;97735.84;5073096;28;20251;-76
2022/03/06 06:40:48;;;;;;;6.50;5.90;;;;;;;17.27;41.15;97673.09;5054967;28;20661;-78
2022/03/06 06:43:15;;;;;;;5.70;5.20;;;;;;;18.00;41.05;97801.22;5039208;28;20228;-77
2022/03/06 06:45:42;;;;;;;5.33;4.83;;;;;;;18.02;41.48;97860.66;5071592;28;20200;-79
2022/03/06 06:48:08;;;;;;;6.33;5.73;;;;;;;16.98;41.20;97631.06;5032983;28;1118948;-78
2022/03/06 06:50:35;;;;;;;6.10;5.50;;;;;;;17.66;41.38;97747.03;5039749;28;20599;-78
2022/03/06 06:53:02;;;;;;;6.00;5.40;;;;;;;17.65;41.21;97742.72;5056368;28;20316;-78
2022/03/06 06:55:28;;;;;;;5.93;5.37;;;;;;;17.39;41.33;97699.97;5056061;28;20631;-78
2022/03/06 06:57:55;;;;;;;5.90;5.40;;;;;;;17.38;41.46;97702.41;5072750;28;20279;-77
2022/03/06 07:00:22;;;;;;;6.23;5.63;;;;;;;17.38;41.38;97715.13;5072545;28;20282;-78
2022/03/06 07:02:48;;;;;;;6.13;5.53;;;;;;;17.72;41.08;97767.66;5056446;28;20242;-78
2022/03/06 07:05:15;;;;;;;6.00;5.40;;;;;;;18.02;40.93;97822.50;5060577;28;20274;-78
2022/03/06 07:07:42;;;;;;;6.50;5.80;;;;;;;17.04;41.35;97659.28;5052246;28;20221;-78
2022/03/06 07:10:09;;;;;;;6.47;5.87;;;;;;;18.02;41.12;97831.81;5035921;28;20240;-78
2022/03/06 07:12:47;;;;;;;6.20;5.60;;;;;;;17.18;41.21;97681.13;5051924;28;20237;-79
2022/03/06 07:15:14;;;;;;;5.20;4.70;;;;;;;16.47;41.30;97548.97;5036911;28;20248;-78
2022/03/06 07:17:41;;;;;;;5.77;5.17;;;;;;;17.54;41.14;97741.38;5035889;28;20271;-77
2022/03/06 07:20:08;;;;;;;6.23;5.63;;;;;;;16.70;41.24;97591.56;5036115;28;20228;-77
2022/03/06 07:22:35;;;;;;;5.87;5.37;;;;;;;17.67;41.60;97752.97;5035666;28;20335;-78
2022/03/06 07:25:01;;;;;;;6.20;5.47;;;;;;;17.63;41.28;97751.09;5036392;28;20240;-77
2022/03/06 07:27:28;;;;;;;5.77;5.27;;;;;;;17.67;41.39;97758.06;5052350;28;20193;-78
2022/03/06 07:29:55;;;;;;;6.17;5.57;;;;;;;17.54;41.00;97737.94;5035825;28;20292;-77
2022/03/06 07:32:22;;;;;;;6.63;6.00;;;;;;;17.08;41.48;97660.31;5051617;28;20241;-78
2022/03/06 07:34:48;;;;;;;6.20;5.60;;;;;;;17.40;41.37;97713.50;5035583;28;20315;-77
2022/03/06 07:37:15;;;;;;;5.87;5.27;;;;;;;18.01;41.14;97825.88;5053090;28;20601;-79
2022/03/06 07:39:41;;;;;;;5.87;5.37;;;;;;;18.01;41.63;97828.41;5052346;28;20284;-77
2022/03/06 07:42:08;;;;;;;5.67;5.17;;;;;;;17.66;41.50;97769.91;5053395;28;20197;-78
2022/03/06 07:44:35;;;;;;;6.33;5.73;;;;;;;18.01;41.10;97832.63;5035466;28;20228;-77
2022/03/06 07:47:02;;;;;;;6.27;5.47;;;;;;;16.43;41.24;97558.03;5052033;28;20291;-78
2022/03/06 07:49:29;;;;;;;6.33;5.73;;;;;;;17.04;41.40;97666.00;5036388;28;20284;-78
2022/03/06 07:51:55;;;;;;;5.73;5.13;;;;;;;17.98;41.29;97829.94;5019178;28;20668;-78
2022/03/06 07:54:22;;;;;;;6.00;5.40;;;;;;;17.53;41.37;97749.78;5051575;28;20340;-76
2022/03/06 07:56:49;;;;;;;5.60;5.10;;;;;;;17.97;41.45;97830.72;5053208;28;20247;-78
2022/03/06 07:59:15;;;;;;;5.80;5.30;;;;;;;17.64;41.26;97779.13;5051467;28;20225;-78
2022/03/06 08:01:42;;;;;;;5.67;5.07;;;;;;;17.95;41.67;97827.25;5035253;28;20287;-78
2022/03/06 08:04:08;;;;;;;5.77;5.17;;;;;;;16.13;41.56;97515.94;5056949;28;20287;-78
2022/03/06 08:06:35;;;;;;;5.30;4.80;;;;;;;16.41;41.36;97565.56;5071829;28;20741;-78
2022/03/06 08:09:04;;;;;;;6.00;5.40;;;;;;;17.93;41.34;97828.81;5071460;28;20301;-78
2022/03/06 08:11:31;;;;;;;6.00;5.40;;;;;;;17.55;41.72;97773.59;5072589;28;20670;-78
2022/03/06 08:13:57;;;;;;;5.90;5.20;;;;;;;17.91;41.70;97831.28;5054149;28;20266;-78
2022/03/06 08:16:24;;;;;;;5.43;4.93;;;;;;;17.90;41.75;97839.72;5071353;28;20239;-78
2022/03/06 08:18:51;;;;;;;5.83;5.23;;;;;;;17.90;41.46;97833.75;5072580;28;20697;-77
2022/03/06 08:21:17;;;;;;;5.47;4.97;;;;;;;15.58;41.62;97466.72;5071136;28;20235;-78
2022/03/06 08:23:44;;;;;;;6.43;5.80;;;;;;;17.90;41.69;97843.94;5054950;28;20228;-77
2022/03/06 08:26:10;;;;;;;5.60;5.10;;;;;;;17.61;41.12;97783.19;5054556;28;20291;-78
2022/03/06 08:28:37;;;;;;;6.43;5.73;;;;;;;17.89;41.61;97844.75;5054846;28;20255;-78
2022/03/06 08:31:04;;;;;;;6.60;5.70;;;;;;;16.93;41.50;97668.03;5070641;28;20294;-78
2022/03/06 08:33:30;;;;;;;6.03;5.43;;;;;;;17.52;41.28;97777.66;5071162;28;20242;-78
2022/03/06 08:35:57;;;;;;;6.37;5.37;;;;;;;17.61;41.24;97788.25;5054541;28;20619;-78
2022/03/06 08:38:23;;;;;;;5.40;4.90;;;;;;;17.32;41.33;97735.16;5054485;28;20282;-77
2022/03/06 08:40:50;;;;;;;5.77;5.23;;;;;;;16.59;41.92;97621.47;5053929;28;20669;-77
2022/03/06 08:43:16;;;;;;;5.77;5.20;;;;;;;17.23;41.75;97732.16;5038160;28;20255;-78
2022/03/06 08:45:43;;;;;;;5.77;5.20;;;;;;;17.53;41.42;97779.41;5054120;28;20239;-78
2022/03/06 08:48:10;;;;;;;5.63;5.13;;;;;;;16.85;41.65;97666.78;5053770;28;20260;-78
2022/03/06 08:50:36;;;;;;;5.90;5.30;;;;;;;17.20;41.84;97722.69;5037807;28;20207;-78
2022/03/06 08:53:03;;;;;;;5.97;5.20;;;;;;;17.51;41.62;97776.78;5037360;28;20246;-76
2022/03/06 08:55:30;;;;;;;6.17;5.57;;;;;;;17.60;41.83;97794.16;5054207;28;20748;-78
2022/03/06 08:57:56;;;;;;;6.03;5.07;;;;;;;17.86;41.98;97837.81;5054082;28;20306;-77
2022/03/06 09:00:23;;;;;;;6.20;5.60;;;;;;;15.55;41.76;97435.28;5071716;28;20228;-78
2022/03/06 09:02:49;;;;;;;6.03;5.40;;;;;;;17.25;41.81;97738.16;5054026;28;20205;-78
2022/03/06 09:05:16;;;;;;;6.17;5.43;;;;;;;17.49;41.45;97777.50;5040443;28;20200;-79
2022/03/06 09:07:43;;;;;;;6.30;5.50;;;;;;;17.84;41.89;97836.88;5017213;28;20634;-78
2022/03/06 09:10:09;;;;;;;5.90;5.30;;;;;;;17.29;41.27;97737.53;5050360;28;20240;-78
2022/03/06 09:12:37;;;;;;;5.80;5.20;;;;;;;16.78;41.79;97646.97;5033584;28;20200;-78
2022/03/06 09:15:05;;;;;;;5.93;5.27;;;;;;;16.93;41.40;97678.19;5017521;28;20769;-78
2022/03/06 09:17:31;;;;;;;6.33;5.70;;;;;;;17.12;41.38;97708.78;5017497;28;20221;-78
2022/03/06 09:19:58;;;;;;;6.03;5.30;;;;;;;17.84;41.54;97834.34;5033682;28;20243;-76
2022/03/06 09:22:24;;;;;;;6.03;5.43;;;;;;;17.27;41.73;97728.97;5033540;28;20236;-78
2022/03/06 09:24:51;;;;;;;6.07;5.30;;;;;;;16.87;41.22;97661.78;5033981;28;20208;-78
2022/03/06 09:27:17;;;;;;;6.33;5.70;;;;;;;17.47;41.32;97766.41;5017595;28;20228;-78
2022/03/06 09:29:44;;;;;;;6.40;5.80;;;;;;;16.78;41.24;97644.44;5033221;28;20201;-78
2022/03/06 09:32:13;;;;;;;6.20;5.60;;;;;;;17.85;41.40;97825.03;5033994;28;20201;-78
2022/03/06 09:34:40;;;;;;;5.50;5.00;;;;;;;17.86;41.34;97831.88;5049574;28;20263;-78
2022/03/06 09:37:06;;;;;;;5.70;5.10;;;;;;;17.86;40.99;97822.56;5050062;28;20205;-79
2022/03/06 09:39:33;;;;;;;5.47;4.97;;;;;;;17.15;41.25;97708.03;5051057;28;20832;-77
2022/03/06 09:41:59;;;;;;;6.00;5.40;;;;;;;16.82;41.61;97642.91;5017169;28;20231;-78
2022/03/06 09:44:27;;;;;;;5.70;5.10;;;;;;;17.19;41.71;97708.28;5033112;28;20232;-78
2022/03/06 09:46:56;;;;;;;6.37;5.40;;;;;;;17.27;41.53;97723.88;5033565;28;20258;-78
2022/03/06 09:49:25;;;;;;;5.63;5.13;;;;;;;17.03;41.18;97682.06;5049474;28;20733;-78
2022/03/06 09:51:51;;;;;;;5.17;4.67;;;;;;;16.66;41.50;97613.38;5033262;28;20295;-78
2022/03/06 09:54:18;;;;;;;5.40;4.90;;;;;;;16.80;41.14;97636.88;5033158;28;20315;-78
2022/03/06 09:56:44;;;;;;;6.53;5.17;;;;;;;16.33;41.47;97555.84;5033537;28;20236;-78
2022/03/06 09:59:11;;;;;;;5.80;5.20;;;;;;;16.95;41.12;97661.38;5032932;28;20249;-78
2022/03/06 10:01:38;;;;;;;5.90;5.30;;;;;;;16.94;41.35;97673.97;5032871;28;20228;-79
2022/03/06 10:04:25;;;;;;;5.90;5.30;;;;;;;17.06;41.46;97678.00;5036857;28;20227;-77
2022/03/06 10:07:11;;;;;;;5.90;5.30;;;;;;;16.86;40.97;97644.81;5071052;28;20200;-78
2022/03/06 10:09:51;;;;;;;5.50;5.00;;;;;;;17.75;41.56;97790.69;5037491;28;20230;-78
2022/03/06 10:12:27;;;;;;;5.87;5.27;;;;;;;16.66;41.51;97598.16;5069424;28;20737;-78
2022/03/06 10:14:59;;;;;;;5.63;5.13;;;;;;;16.63;41.22;97592.03;5054279;28;20313;-78
2022/03/06 10:17:27;;;;;;;5.67;5.17;;;;;;;17.26;41.28;97705.22;5052989;28;20231;-78
2022/03/06 10:20:09;;;;;;;6.23;5.60;;;;;;;16.22;41.52;97518.94;5036597;28;20290;-78
2022/03/06 10:22:40;;;;;;;5.63;5.13;;;;;;;17.93;41.06;97822.09;5038098;28;20200;-77
2022/03/06 10:25:16;;;;;;;6.10;5.33;;;;;;;16.84;41.50;97639.66;5069690;28;20220;-78
2022/03/06 10:27:53;;;;;;;6.10;5.20;;;;;;;17.93;41.18;97827.16;5053394;28;20220;-78
2022/03/06 10:30:37;;;;;;;5.20;4.70;;;;;;;16.36;41.43;97546.75;5069123;28;20204;-79
2022/03/06 10:33:05;;;;;;;5.80;5.20;;;;;;;16.71;41.52;97605.97;5054361;28;20572;-78
2022/03/06 10:35:34;;;;;;;5.73;5.07;;;;;;;17.02;41.47;97657.47;5052767;28;20259;-78
2022/03/06 10:38:01;;;;;;;6.00;5.40;;;;;;;17.30;41.44;97707.13;5052966;28;20278;-78
2022/03/06 10:40:56;;;;;;;6.10;5.50;;;;;;;17.94;41.45;97812.75;5035855;28;20239;-78
2022/03/06 10:43:28;;;;;;;5.67;5.17;;;;;;;17.82;41.22;97790.19;5050601;28;20278;-77
2022/03/06 10:46:17;;;;;;;6.30;5.40;;;;;;;17.64;41.38;97763.88;5069544;28;20634;-78
2022/03/06 10:48:58;;;;;;;5.70;5.13;;;;;;;17.67;41.39;97766.56;5069199;28;20232;-78
2022/03/06 10:51:24;;;;;;;5.60;5.10;;;;;;;17.95;41.31;97809.44;5052602;28;20627;-78
2022/03/06 10:53:52;;;;;;;5.47;4.97;;;;;;;17.35;41.35;97704.81;5052634;28;20583;-76
2022/03/06 10:56:20;;;;;;;5.43;4.93;;;;;;;16.98;41.37;97648.81;5036363;28;20317;-77
2022/03/06 10:58:47;;;;;;;5.80;5.20;;;;;;;17.00;41.50;97656.50;5068909;28;20251;-78
2022/03/06 11:01:26;;;;;;;5.53;5.03;;;;;;;17.63;41.13;97767.22;5054120;28;20754;-77
2022/03/06 11:03:53;;;;;;;5.27;4.77;;;;;;;17.27;41.50;97703.56;5050296;28;20204;-76
2022/03/06 11:06:20;;;;;;;5.27;4.77;;;;;;;17.92;41.16;97820.31;5032695;28;20220;-78
2022/03/06 11:08:47;;;;;;;4.97;4.40;;;;;;;17.57;41.68;97756.78;5048817;28;20714;-77
2022/03/06 11:11:19;;;;;;;5.07;4.57;;;;;;;17.91;41.35;97802.44;5036181;28;20201;-78
2022/03/06 11:13:46;;;;;;;5.17;4.67;;;;;;;16.18;41.54;97512.00;5035528;28;20228;-78
2022/03/06 11:16:12;;;;;;;5.30;4.80;;;;;;;17.89;41.70;97812.53;5036237;28;20228;-78
2022/03/06 11:18:39;;;;;;;5.33;4.80;;;;;;;17.58;41.33;97755.06;5053398;28;20534;-78
2022/03/06 11:21:05;;;;;;;5.00;4.60;;;;;;;17.87;41.38;97801.44;5019721;28;20236;-77
2022/03/06 11:23:32;;;;;;;6.07;5.17;;;;;;;17.87;41.09;97804.00;5052364;28;20240;-77
2022/03/06 11:26:13;;;;;;;5.40;4.90;;;;;;;17.88;41.34;97807.38;5053829;28;20221;-77
2022/03/06 11:28:43;;;;;;;5.57;4.70;;;;;;;17.87;41.38;97804.00;5053448;28;20316;-76
2022/03/06 11:31:12;;;;;;;5.27;4.77;;;;;;;17.20;41.67;97692.22;5052092;28;20645;-78
2022/03/06 11:33:43;;;;;;;5.30;4.80;;;;;;;15.72;41.36;97427.72;5036200;28;20204;-78
2022/03/06 11:36:26;;;;;;;5.27;4.77;;;;;;;17.42;41.61;97717.88;5035518;28;20256;-79
2022/03/06 11:38:53;;;;;;;5.03;4.60;;;;;;;17.85;41.30;97795.41;5035646;28;20225;-78
2022/03/06 11:41:20;;;;;;;5.70;5.20;;;;;;;17.85;40.98;97792.88;5051738;28;20232;-78
2022/03/06 11:43:49;;;;;;;5.10;4.63;;;;;;;17.63;41.43;97751.09;5053466;28;20208;-78
2022/03/06 11:46:23;;;;;;;5.10;4.60;;;;;;;17.84;41.15;97793.69;5051951;28;20205;-78
2022/03/06 11:48:49;;;;;;;5.43;4.90;;;;;;;17.85;41.64;97787.78;5052073;28;20307;-78
2022/03/06 11:51:22;;;;;;;5.80;5.20;;;;;;;17.85;41.12;97794.53;5052635;28;20287;-77
2022/03/06 11:53:56;;;;;;;5.00;4.50;;;;;;;17.84;41.34;97787.72;5053351;28;20244;-77
2022/03/06 11:56:35;;;;;;;5.20;4.70;;;;;;;17.84;41.47;97783.50;5035296;28;20239;-78
2022/03/06 11:59:17;;;;;;;4.90;4.50;;;;;;;16.89;41.25;97617.91;5051908;28;20263;-77
2022/03/06 12:01:50;;;;;;;5.27;4.77;;;;;;;17.83;41.76;97779.19;5036808;28;20185;-77